createdAt,value
2023-03-13T00:00:25.827Z,100058.75
2023-03-13T00:02:52.292Z,100056.31
2023-03-13T00:05:20.212Z,100050.53
2023-03-13T00:07:46.729Z,100046.69
2023-03-13T00:10:13.180Z,100040.44
2023-03-13T00:12:39.683Z,100033.16
2023-03-13T00:15:07.275Z,100031.84
2023-03-13T00:17:33.732Z,100023.88
2023-03-13T00:20:00.292Z,100021.22
2023-03-13T00:22:28.131Z,100016.22
2023-03-13T00:24:54.651Z,100007.94
2023-03-13T00:27:21.127Z,100006.59
2023-03-13T00:29:47.581Z,100005.78
2023-03-13T00:32:14.110Z,100003.47
2023-03-13T00:34:40.676Z,99992.34
2023-03-13T00:37:07.158Z,99971.09
2023-03-13T00:39:34.981Z,99983.22
2023-03-13T00:42:01.481Z,99971.78
2023-03-13T00:44:27.989Z,99966.97
2023-03-13T00:46:54.445Z,99966.81
2023-03-13T00:49:20.919Z,99958.53
2023-03-13T00:51:47.428Z,99949.25
2023-03-13T00:54:13.941Z,99946.41
2023-03-13T00:56:41.759Z,99949.25
2023-03-13T00:59:08.251Z,99942.59
2023-03-13T01:01:36.026Z,99933.66
2023-03-13T01:04:05.812Z,99936.97
2023-03-13T01:06:34.745Z,99925.72
2023-03-13T01:09:01.826Z,99920.41
2023-03-13T01:11:29.749Z,99914.44
2023-03-13T01:13:59.433Z,99907.50
2023-03-13T01:16:27.167Z,99905.47
2023-03-13T01:18:55.943Z,99897.81
2023-03-13T01:21:23.886Z,99889.22
2023-03-13T01:23:51.612Z,99889.03
2023-03-13T01:26:18.465Z,99880.59
2023-03-13T01:28:45.766Z,99884.38
2023-03-13T01:31:15.418Z,99872.25
2023-03-13T01:33:42.414Z,99864.34
2023-03-13T01:36:09.455Z,99856.09
2023-03-13T01:38:36.129Z,99859.13
2023-03-13T01:41:03.932Z,99852.16
2023-03-13T01:43:32.710Z,99845.69
2023-03-13T01:46:03.161Z,99839.34
2023-03-13T01:48:37.374Z,99834.63
2023-03-13T01:51:08.029Z,99830.69
2023-03-13T01:53:36.802Z,99822.09
2023-03-13T01:56:07.263Z,99823.28
2023-03-13T01:58:33.902Z,99812.41
2023-03-13T02:01:00.639Z,99803.78
2023-03-13T02:03:28.252Z,99810.09
2023-03-13T02:05:57.814Z,99807.81
2023-03-13T02:08:29.911Z,99808.66
2023-03-13T02:11:04.187Z,99799.41
2023-03-13T02:13:30.661Z,99808.00
2023-03-13T02:15:57.302Z,99796.59
2023-03-13T02:18:23.861Z,99787.22
2023-03-13T02:20:53.332Z,99774.53
2023-03-13T02:23:27.711Z,99776.59
2023-03-13T02:25:56.569Z,99768.38
2023-03-13T02:28:25.739Z,99768.00
2023-03-13T02:30:55.441Z,99749.22
2023-03-13T02:33:26.053Z,99739.06
2023-03-13T02:35:53.599Z,99714.59
2023-03-13T02:38:24.262Z,99713.69
2023-03-13T02:40:53.149Z,99710.84
2023-03-13T02:43:26.114Z,99715.88
2023-03-13T02:46:04.009Z,99731.28
2023-03-13T02:48:32.195Z,99715.50
2023-03-13T02:50:58.814Z,99718.53
2023-03-13T02:53:25.456Z,99708.56
2023-03-13T02:55:52.536Z,99714.06
2023-03-13T02:58:19.200Z,99704.84
2023-03-13T03:00:47.095Z,99711.00
2023-03-13T03:03:13.615Z,99713.38
2023-03-13T03:05:40.295Z,99706.78
2023-03-13T03:08:06.784Z,99706.25
2023-03-13T03:10:35.780Z,99698.28
2023-03-13T03:13:02.325Z,99705.78
2023-03-13T03:15:28.840Z,99707.63
2023-03-13T03:17:56.667Z,99715.84
2023-03-13T03:20:23.178Z,99719.53
2023-03-13T03:22:49.655Z,99712.34
2023-03-13T03:25:16.203Z,99703.66
2023-03-13T03:27:42.687Z,99704.53
2023-03-13T03:30:10.832Z,99700.50
2023-03-13T03:32:37.325Z,99704.81
2023-03-13T03:35:06.380Z,99701.78
2023-03-13T03:37:32.853Z,99694.41
2023-03-13T03:39:59.318Z,99700.00
2023-03-13T03:42:25.782Z,99694.06
2023-03-13T03:44:52.341Z,99685.06
2023-03-13T03:47:18.913Z,99675.06
2023-03-13T03:49:45.475Z,99680.38
2023-03-13T03:52:13.295Z,99672.03
2023-03-13T03:54:39.862Z,99683.94
2023-03-13T03:57:06.448Z,99678.25
2023-03-13T03:59:32.978Z,99679.81
2023-03-13T04:01:59.466Z,99673.28
2023-03-13T04:04:26.170Z,99675.81
2023-03-13T04:06:52.738Z,99671.78
2023-03-13T04:09:20.810Z,99672.47
2023-03-13T04:11:47.295Z,99674.94
2023-03-13T04:14:13.749Z,99669.81
2023-03-13T04:16:40.243Z,99670.25
2023-03-13T04:19:06.762Z,99664.78
2023-03-13T04:21:33.578Z,99666.28
2023-03-13T04:24:00.028Z,99655.50
2023-03-13T04:26:27.835Z,99651.59
2023-03-13T04:28:54.386Z,99643.78
2023-03-13T04:31:20.891Z,99639.53
2023-03-13T04:33:47.514Z,99628.06
2023-03-13T04:36:14.091Z,99623.56
2023-03-13T04:38:40.539Z,99633.25
2023-03-13T04:41:07.024Z,99623.63
2023-03-13T04:43:34.907Z,99617.50
2023-03-13T04:46:01.371Z,99615.09
2023-03-13T04:48:27.940Z,99607.94
2023-03-13T04:50:54.431Z,99607.13
2023-03-13T04:53:20.911Z,99598.53
2023-03-13T04:55:48.458Z,99598.34
2023-03-13T04:58:14.936Z,99609.16
2023-03-13T05:00:42.869Z,99610.19
2023-03-13T05:03:09.308Z,99610.06
2023-03-13T05:05:35.821Z,99615.38
2023-03-13T05:08:02.421Z,99614.94
2023-03-13T05:10:28.937Z,99616.59
2023-03-13T05:12:55.470Z,99622.13
2023-03-13T05:15:21.947Z,99602.47
2023-03-13T05:17:49.820Z,99592.84
2023-03-13T05:20:16.470Z,99591.63
2023-03-13T05:22:42.948Z,99592.06
2023-03-13T05:25:09.743Z,99594.34
2023-03-13T05:27:36.267Z,99595.41
2023-03-13T05:30:02.924Z,99589.28
2023-03-13T05:32:29.483Z,99589.09
2023-03-13T05:34:57.396Z,99595.03
2023-03-13T05:37:23.959Z,99591.72
2023-03-13T05:39:50.680Z,99586.81
2023-03-13T05:42:17.160Z,99580.28
2023-03-13T05:44:43.636Z,99572.50
2023-03-13T05:47:10.167Z,99569.28
2023-03-13T05:49:36.639Z,99569.69
2023-03-13T05:52:05.113Z,99573.78
2023-03-13T05:54:31.593Z,99563.75
2023-03-13T05:56:58.258Z,99564.97
2023-03-13T05:59:24.785Z,99565.44
2023-03-13T06:01:51.276Z,99574.44
2023-03-13T06:04:17.873Z,99569.13
2023-03-13T06:06:46.025Z,99569.75
2023-03-13T06:09:13.875Z,99577.13
2023-03-13T06:11:40.397Z,99570.00
2023-03-13T06:14:07.023Z,99587.19
2023-03-13T06:16:33.597Z,99569.16
2023-03-13T06:19:00.138Z,99577.97
2023-03-13T06:21:26.701Z,99576.97
2023-03-13T06:23:54.396Z,99575.13
2023-03-13T06:26:22.225Z,99574.50
2023-03-13T06:28:48.761Z,99573.06
2023-03-13T06:31:15.254Z,99582.50
2023-03-13T06:33:41.749Z,99567.53
2023-03-13T06:36:09.263Z,99567.34
2023-03-13T06:38:35.887Z,99567.78
2023-03-13T06:41:02.403Z,99566.56
2023-03-13T06:43:30.402Z,99562.03
2023-03-13T06:45:56.988Z,99556.94
2023-03-13T06:48:23.540Z,99560.63
2023-03-13T06:50:50.750Z,99553.41
2023-03-13T06:53:19.152Z,99547.66
2023-03-13T06:55:46.251Z,99558.53
2023-03-13T06:58:25.382Z,99564.72
2023-03-13T07:00:59.530Z,99559.19
2023-03-13T07:03:26.175Z,99564.09
2023-03-13T07:05:55.811Z,99547.72
2023-03-13T07:08:22.318Z,99557.13
2023-03-13T07:10:48.834Z,99557.34
2023-03-13T07:13:15.306Z,99568.22
2023-03-13T07:15:41.749Z,99558.19
2023-03-13T07:18:09.583Z,99572.09
2023-03-13T07:20:36.165Z,99564.09
2023-03-13T07:23:02.759Z,99565.75
2023-03-13T07:25:29.271Z,99573.13
2023-03-13T07:27:55.745Z,99564.72
2023-03-13T07:30:22.730Z,99572.31
2023-03-13T07:32:49.255Z,99573.78
2023-03-13T07:35:17.204Z,99567.81
2023-03-13T07:37:43.745Z,99574.19
2023-03-13T07:40:11.550Z,99562.50
2023-03-13T07:42:40.359Z,99572.72
2023-03-13T07:45:07.837Z,99555.09
2023-03-13T07:47:34.754Z,99555.50
2023-03-13T07:50:01.264Z,99557.78
2023-03-13T07:52:29.114Z,99557.97
2023-03-13T07:54:55.597Z,99552.00
2023-03-13T07:57:22.121Z,99569.47
2023-03-13T07:59:48.632Z,99560.81
2023-03-13T08:02:15.213Z,99560.81
2023-03-13T08:04:41.868Z,99560.81
2023-03-13T08:07:09.183Z,99558.56
2023-03-13T08:09:37.248Z,99552.00
2023-03-13T08:12:04.397Z,99554.47
2023-03-13T08:14:30.891Z,99558.78
2023-03-13T08:16:57.447Z,99557.97
2023-03-13T08:19:23.975Z,99542.34
2023-03-13T08:21:50.446Z,99547.69
2023-03-13T08:24:16.967Z,99541.94
2023-03-13T08:26:44.768Z,99546.81
2023-03-13T08:29:13.152Z,99541.09
2023-03-13T08:31:44.207Z,99533.25
2023-03-13T08:34:12.002Z,99536.72
2023-03-13T08:36:39.283Z,99536.50
2023-03-13T08:39:07.825Z,99526.03
2023-03-13T08:41:36.339Z,99537.09
2023-03-13T08:44:05.150Z,99539.75
2023-03-13T08:46:34.152Z,99535.63
2023-03-13T08:49:01.081Z,99538.31
2023-03-13T08:51:28.782Z,99533.13
2023-03-13T08:53:56.216Z,99542.75
2023-03-13T08:56:24.429Z,99530.22
2023-03-13T08:58:52.352Z,99528.34
2023-03-13T09:01:21.680Z,99523.00
2023-03-13T09:03:48.795Z,99523.19
2023-03-13T09:06:15.258Z,99517.84
2023-03-13T09:08:42.156Z,99528.88
2023-03-13T09:11:11.174Z,99517.31
2023-03-13T09:13:39.673Z,99519.16
2023-03-13T09:16:08.417Z,99513.19
2023-03-13T09:18:36.971Z,99511.94
2023-03-13T09:21:07.317Z,99495.09
2023-03-13T09:23:33.946Z,99502.06
2023-03-13T09:26:00.788Z,99499.22
2023-03-13T09:28:27.438Z,99506.00
2023-03-13T09:30:54.546Z,99505.78
2023-03-13T09:33:22.344Z,99500.84
2023-03-13T09:35:50.373Z,99490.50
2023-03-13T09:38:16.967Z,99480.84
2023-03-13T09:40:59.850Z,99495.84
2023-03-13T09:43:42.275Z,99494.75
2023-03-13T09:46:16.846Z,99486.44
2023-03-13T09:48:47.208Z,99479.63
2023-03-13T09:51:18.592Z,99476.88
2023-03-13T09:53:52.250Z,99466.81
2023-03-13T09:56:23.827Z,99484.47
2023-03-13T09:58:54.471Z,99445.59
2023-03-13T10:01:26.005Z,99460.66
2023-03-13T10:04:04.462Z,99461.00
2023-03-13T10:06:38.045Z,99438.69
2023-03-13T10:09:05.881Z,99444.44
2023-03-13T10:11:38.715Z,99441.91
2023-03-13T10:14:11.824Z,99444.53
2023-03-13T10:16:44.024Z,99451.44
2023-03-13T10:19:14.111Z,99451.03
2023-03-13T10:21:45.014Z,99440.25
2023-03-13T10:24:18.066Z,99425.44
2023-03-13T10:26:44.628Z,99429.94
2023-03-13T10:29:22.981Z,99425.28
2023-03-13T10:31:55.833Z,99413.97
2023-03-13T10:34:22.731Z,99413.31
2023-03-13T10:36:55.516Z,99406.38
2023-03-13T10:39:24.280Z,99418.91
2023-03-13T10:41:56.426Z,99412.56
2023-03-13T10:44:29.374Z,99403.25
2023-03-13T10:47:00.213Z,99395.19
2023-03-13T10:49:26.947Z,99400.56
2023-03-13T10:51:58.664Z,99398.69
2023-03-13T10:54:27.350Z,99389.81
2023-03-13T10:57:19.350Z,99385.25
2023-03-13T10:59:47.377Z,99397.22
2023-03-13T11:02:22.763Z,99378.09
2023-03-13T11:04:49.617Z,99389.53
2023-03-13T11:07:25.186Z,99379.69
2023-03-13T11:10:04.282Z,99374.13
2023-03-13T11:12:34.515Z,99353.72
2023-03-13T11:15:03.311Z,99372.47
2023-03-13T11:17:37.370Z,99375.59
2023-03-13T11:20:22.088Z,99371.53
2023-03-13T11:23:08.763Z,99358.03
2023-03-13T11:25:39.236Z,99360.81
2023-03-13T11:28:19.931Z,99364.09
2023-03-13T11:31:03.682Z,99355.81
2023-03-13T11:33:36.248Z,99357.69
2023-03-13T11:36:13.122Z,99366.09
2023-03-13T11:38:44.280Z,99346.97
2023-03-13T11:41:37.202Z,99355.22
2023-03-13T11:44:16.427Z,99347.78
2023-03-13T11:46:59.995Z,99346.63
2023-03-13T11:49:43.679Z,99342.88
2023-03-13T11:52:24.129Z,99332.88
2023-03-13T11:55:03.337Z,99333.22
2023-03-13T11:57:32.196Z,99321.09
2023-03-13T12:00:15.534Z,99314.22
2023-03-13T12:02:48.858Z,99314.22
2023-03-13T12:05:18.482Z,99308.44
2023-03-13T12:07:50.947Z,99297.31
2023-03-13T12:10:25.522Z,99298.53
2023-03-13T12:12:58.930Z,99290.91
2023-03-13T12:15:29.804Z,99286.75
2023-03-13T12:18:02.490Z,99278.50
2023-03-13T12:20:38.449Z,99274.16
2023-03-13T12:23:16.768Z,99256.81
2023-03-13T12:25:49.117Z,99257.34
2023-03-13T12:28:25.717Z,99245.34
2023-03-13T12:30:59.105Z,99256.25
2023-03-13T12:33:31.035Z,99248.03
2023-03-13T12:36:05.722Z,99252.34
2023-03-13T12:38:37.856Z,99218.41
2023-03-13T12:41:17.713Z,99237.59
2023-03-13T12:44:00.584Z,99244.00
2023-03-13T12:46:42.753Z,99235.22
2023-03-13T12:49:35.117Z,99223.50
2023-03-13T12:52:21.687Z,99229.41
2023-03-13T12:55:18.598Z,99204.13
2023-03-13T12:58:16.169Z,99213.28
2023-03-13T13:00:45.992Z,99205.47
2023-03-13T13:03:29.873Z,99193.84
2023-03-13T13:06:03.932Z,99199.22
2023-03-13T13:08:34.667Z,99198.69
2023-03-13T13:11:45.290Z,99205.78
2023-03-13T13:14:54.342Z,99201.63
2023-03-13T13:17:26.564Z,99205.38
2023-03-13T13:19:53.604Z,99195.94
2023-03-13T13:22:45.961Z,99190.00
2023-03-13T13:25:34.362Z,99185.28
2023-03-13T13:28:26.694Z,99187.00
2023-03-13T13:30:56.190Z,99178.69
2023-03-13T13:33:38.780Z,99178.41
2023-03-13T13:36:28.156Z,99170.28
2023-03-13T13:38:55.466Z,99178.13
2023-03-13T13:41:34.090Z,99175.84
2023-03-13T13:44:33.839Z,99156.91
2023-03-13T13:47:00.344Z,99154.72
2023-03-13T13:49:33.297Z,99156.56
2023-03-13T13:52:36.426Z,99152.72
2023-03-13T13:55:04.107Z,99150.44
2023-03-13T13:57:34.712Z,99149.41
2023-03-13T14:00:06.490Z,99133.06
2023-03-13T14:02:35.478Z,99137.75
2023-03-13T14:05:06.330Z,99128.31
2023-03-13T14:07:53.029Z,99125.38
2023-03-13T14:10:29.824Z,99129.38
2023-03-13T14:12:58.598Z,99126.69
2023-03-13T14:15:26.860Z,99135.94
2023-03-13T14:17:55.088Z,99140.28
2023-03-13T14:20:29.252Z,99134.28
2023-03-13T14:22:59.919Z,99127.75
2023-03-13T14:25:29.485Z,99137.22
2023-03-13T14:27:56.244Z,99133.94
2023-03-13T14:30:23.527Z,99126.94
2023-03-13T14:32:51.360Z,99135.44
2023-03-13T14:35:19.658Z,99128.13
2023-03-13T14:37:48.920Z,99132.63
2023-03-13T14:40:29.644Z,99133.69
2023-03-13T14:42:58.519Z,99139.72
2023-03-13T14:45:29.128Z,99131.19
2023-03-13T14:48:00.835Z,99124.19
2023-03-13T14:50:27.409Z,99120.75
2023-03-13T14:53:00.775Z,99121.97
2023-03-13T14:55:30.999Z,99107.16
2023-03-13T14:57:59.336Z,99092.94
2023-03-13T15:00:33.754Z,99098.28
2023-03-13T15:03:24.346Z,99077.41
2023-03-13T15:06:03.403Z,99086.84
2023-03-13T15:08:31.429Z,99071.31
2023-03-13T15:10:58.072Z,99078.47
2023-03-13T15:13:27.492Z,99074.38
2023-03-13T15:15:54.193Z,99064.56
2023-03-13T15:18:23.603Z,99062.88
2023-03-13T15:20:51.206Z,99051.47
2023-03-13T15:23:18.675Z,99045.69
2023-03-13T15:25:46.903Z,99044.97
2023-03-13T15:28:16.024Z,99047.72
2023-03-13T15:30:43.034Z,99045.38
2023-03-13T15:33:13.910Z,99021.09
2023-03-13T15:35:40.568Z,99019.41
2023-03-13T15:38:12.654Z,99028.75
2023-03-13T15:40:39.173Z,99024.38
2023-03-13T15:43:07.966Z,99011.63
2023-03-13T15:45:35.620Z,99001.91
2023-03-13T15:48:02.496Z,99003.56
2023-03-13T15:50:29.160Z,98999.81
2023-03-13T15:52:55.777Z,98983.19
2023-03-13T15:55:22.307Z,98976.31
2023-03-13T15:57:50.067Z,98976.66
2023-03-13T16:00:19.987Z,98983.53
2023-03-13T16:02:46.735Z,98971.91
2023-03-13T16:05:13.250Z,98970.22
2023-03-13T16:07:39.752Z,98966.28
2023-03-13T16:10:14.898Z,98970.81
2023-03-13T16:12:41.391Z,98965.78
2023-03-13T16:15:08.841Z,98959.59
2023-03-13T16:17:36.715Z,98955.56
2023-03-13T16:20:03.657Z,98959.06
2023-03-13T16:22:30.179Z,98948.84
2023-03-13T16:24:56.652Z,98954.63
2023-03-13T16:27:23.121Z,98951.50
2023-03-13T16:29:49.579Z,98946.47
2023-03-13T16:32:17.285Z,98954.84
2023-03-13T16:34:45.116Z,98945.97
2023-03-13T16:37:13.379Z,98945.09
2023-03-13T16:39:39.946Z,98953.34
2023-03-13T16:42:06.465Z,98950.38
2023-03-13T16:44:32.935Z,98942.34
2023-03-13T16:47:06.053Z,98942.53
2023-03-13T16:49:32.817Z,98943.38
2023-03-13T16:52:00.676Z,98942.69
2023-03-13T16:54:27.147Z,98939.00
2023-03-13T16:56:53.705Z,98934.69
2023-03-13T16:59:20.168Z,98948.09
2023-03-13T17:01:46.746Z,98938.44
2023-03-13T17:04:13.398Z,98941.34
2023-03-13T17:06:42.081Z,98944.16
2023-03-13T17:09:15.233Z,98943.88
2023-03-13T17:11:42.252Z,98942.38
2023-03-13T17:14:08.895Z,98928.19
2023-03-13T17:16:38.767Z,98918.53
2023-03-13T17:19:05.348Z,98923.41
2023-03-13T17:21:32.481Z,98918.06
2023-03-13T17:23:59.589Z,98910.16
2023-03-13T17:26:29.141Z,98912.94
2023-03-13T17:28:57.228Z,98914.22
2023-03-13T17:31:25.545Z,98908.53
2023-03-13T17:33:52.201Z,98898.75
2023-03-13T17:36:21.360Z,98901.44
2023-03-13T17:38:49.545Z,98903.78
2023-03-13T17:41:18.171Z,98906.09
2023-03-13T17:43:46.094Z,98898.75
2023-03-13T17:46:16.078Z,98886.56
2023-03-13T17:48:42.649Z,98889.13
2023-03-13T17:51:14.770Z,98892.69
2023-03-13T17:53:41.412Z,98893.88
2023-03-13T17:56:12.956Z,98891.06
2023-03-13T17:58:39.445Z,98891.28
2023-03-13T18:01:11.423Z,98893.63
2023-03-13T18:03:37.890Z,98893.25
2023-03-13T18:06:05.182Z,98899.41
2023-03-13T18:08:31.838Z,98907.22
2023-03-13T18:10:58.303Z,98900.56
2023-03-13T18:13:24.838Z,98893.38
2023-03-13T18:15:51.344Z,98899.41
2023-03-13T18:18:19.154Z,98897.41
2023-03-13T18:20:45.668Z,98899.38
2023-03-13T18:23:12.112Z,98899.84
2023-03-13T18:25:38.602Z,98903.00
2023-03-13T18:28:05.171Z,98897.06
2023-03-13T18:30:31.624Z,98885.19
2023-03-13T18:32:58.148Z,98879.22
2023-03-13T18:35:26.117Z,98873.53
2023-03-13T18:37:52.736Z,98873.97
2023-03-13T18:40:22.066Z,98874.22
2023-03-13T18:42:48.648Z,98879.56
2023-03-13T18:45:16.436Z,98882.06
2023-03-13T18:47:43.154Z,98878.91
2023-03-13T18:50:20.307Z,98877.06
2023-03-13T18:52:48.170Z,98887.28
2023-03-13T18:55:14.798Z,98882.50
2023-03-13T18:57:41.528Z,98868.41
2023-03-13T19:00:15.499Z,98859.59
2023-03-13T19:02:42.008Z,98852.50
2023-03-13T19:05:09.062Z,98852.88
2023-03-13T19:07:35.769Z,98855.16
2023-03-13T19:10:03.702Z,98841.44
2023-03-13T19:12:30.186Z,98841.78
2023-03-13T19:14:56.676Z,98845.47
2023-03-13T19:17:25.037Z,98839.81
2023-03-13T19:19:51.539Z,98827.94
2023-03-13T19:22:17.995Z,98825.13
2023-03-13T19:24:44.513Z,98821.41
2023-03-13T19:27:14.382Z,98818.75
2023-03-13T19:29:40.872Z,98812.38
2023-03-13T19:32:12.344Z,98809.56
2023-03-13T19:34:38.830Z,98814.97
2023-03-13T19:37:05.396Z,98816.28
2023-03-13T19:39:31.859Z,98814.16
2023-03-13T19:41:58.658Z,98812.41
2023-03-13T19:44:26.512Z,98800.09
2023-03-13T19:46:53.091Z,98804.63
2023-03-13T19:49:20.713Z,98799.78
2023-03-13T19:51:47.825Z,98793.38
2023-03-13T19:54:15.148Z,98781.88
2023-03-13T19:56:44.037Z,98787.00
2023-03-13T19:59:14.665Z,98797.97
2023-03-13T20:01:43.060Z,98785.81
2023-03-13T20:04:09.865Z,98788.19
2023-03-13T20:06:37.247Z,98788.66
2023-03-13T20:09:05.978Z,98787.53
2023-03-13T20:11:32.961Z,98786.44
2023-03-13T20:13:59.461Z,98790.34
2023-03-13T20:16:27.251Z,98789.16
2023-03-13T20:18:55.103Z,98792.13
2023-03-13T20:21:22.338Z,98794.38
2023-03-13T20:23:50.177Z,98797.13
2023-03-13T20:26:19.376Z,98792.63
2023-03-13T20:28:48.224Z,98794.56
2023-03-13T20:31:16.667Z,98806.94
2023-03-13T20:33:43.201Z,98808.72
2023-03-13T20:36:13.664Z,98817.44
2023-03-13T20:38:41.161Z,98797.13
2023-03-13T20:41:08.247Z,98817.94
2023-03-13T20:43:35.674Z,98822.59
2023-03-13T20:46:02.359Z,98807.38
2023-03-13T20:48:29.212Z,98810.59
2023-03-13T20:50:57.340Z,98818.97
2023-03-13T20:53:25.611Z,98815.34
2023-03-13T20:55:52.736Z,98818.59
2023-03-13T20:58:19.191Z,98804.53
2023-03-13T21:00:46.775Z,98825.72
2023-03-13T21:03:13.468Z,98822.53
2023-03-13T21:05:40.576Z,98826.03
2023-03-13T21:08:08.332Z,98823.34
2023-03-13T21:10:36.782Z,98817.41
2023-03-13T21:13:03.694Z,98807.41
2023-03-13T21:15:30.276Z,98805.63
2023-03-13T21:17:56.812Z,98783.22
2023-03-13T21:20:24.125Z,98792.09
2023-03-13T21:22:50.945Z,98786.16
2023-03-13T21:25:18.129Z,98793.03
2023-03-13T21:27:45.979Z,98787.13
2023-03-13T21:30:14.359Z,98781.28
2023-03-13T21:32:40.962Z,98795.50
2023-03-13T21:35:08.548Z,98772.91
2023-03-13T21:37:35.327Z,98772.16
2023-03-13T21:40:02.692Z,98783.63
2023-03-13T21:42:29.196Z,98778.72
2023-03-13T21:44:57.093Z,98776.97
2023-03-13T21:47:23.568Z,98784.88
2023-03-13T21:49:50.128Z,98792.94
2023-03-13T21:52:16.656Z,98784.19
2023-03-13T21:54:43.114Z,98787.28
2023-03-13T21:57:09.600Z,98783.34
2023-03-13T21:59:36.282Z,98791.59
2023-03-13T22:02:04.343Z,98770.84
2023-03-13T22:04:30.820Z,98771.34
2023-03-13T22:06:57.291Z,98767.06
2023-03-13T22:09:23.836Z,98775.72
2023-03-13T22:11:50.538Z,98773.66
2023-03-13T22:14:17.012Z,98761.16
2023-03-13T22:16:43.510Z,98761.31
2023-03-13T22:19:13.298Z,98768.91
2023-03-13T22:21:39.814Z,98770.81
2023-03-13T22:24:07.881Z,98769.63
2023-03-13T22:26:34.918Z,98768.44
2023-03-13T22:29:01.417Z,98758.41
2023-03-13T22:31:27.942Z,98761.53
2023-03-13T22:33:54.419Z,98758.50
2023-03-13T22:36:22.247Z,98777.56
2023-03-13T22:38:48.759Z,98776.84
2023-03-13T22:41:16.416Z,98780.13
2023-03-13T22:43:42.892Z,98785.06
2023-03-13T22:46:09.542Z,98792.22
2023-03-13T22:48:36.508Z,98787.81
2023-03-13T22:51:07.383Z,98779.09
2023-03-13T22:53:38.047Z,98769.25
2023-03-13T22:56:05.299Z,98757.94
2023-03-13T22:58:33.278Z,98756.38
2023-03-13T23:00:59.857Z,98753.94
2023-03-13T23:03:26.324Z,98750.06
2023-03-13T23:05:52.785Z,98737.13
2023-03-13T23:08:19.275Z,98742.47
2023-03-13T23:10:47.271Z,98740.47
2023-03-13T23:13:14.342Z,98734.88
2023-03-13T23:15:55.772Z,98733.16
2023-03-13T23:18:23.003Z,98726.22
2023-03-13T23:20:49.493Z,98729.69
2023-03-13T23:23:16.223Z,98714.16
2023-03-13T23:25:42.788Z,98733.16
2023-03-13T23:28:10.655Z,98719.13
2023-03-13T23:30:37.490Z,98729.84
2023-03-13T23:33:03.976Z,98742.59
2023-03-13T23:35:30.524Z,98747.34
2023-03-13T23:37:57.033Z,98758.88
2023-03-13T23:40:23.960Z,98743.06
2023-03-13T23:42:50.999Z,98757.41
2023-03-13T23:45:19.166Z,98754.56
2023-03-13T23:47:46.129Z,98756.19
2023-03-13T23:50:13.219Z,98751.91
2023-03-13T23:52:40.273Z,98750.88
2023-03-13T23:55:07.999Z,98748.22
2023-03-13T23:57:34.840Z,98752.50
